createdAt,value
2022-10-28T00:04:00.191Z,37.25
2022-10-28T00:09:08.161Z,39.53
2022-10-28T00:14:15.175Z,39.35
2022-10-28T00:19:20.373Z,33.67
2022-10-28T00:24:24.236Z,36.65
2022-10-28T00:29:28.021Z,36.38
2022-10-28T00:34:33.215Z,33.40
2022-10-28T00:39:37.016Z,33.20
2022-10-28T00:44:55.234Z,31.10
2022-10-28T00:50:05.537Z,31.63
2022-10-28T00:55:10.200Z,35.30
2022-10-28T01:00:15.118Z,29.70
2022-10-28T01:05:23.142Z,26.50
2022-10-28T01:10:34.027Z,25.42
2022-10-28T01:15:43.826Z,27.25
2022-10-28T01:21:35.050Z,29.02
2022-10-28T01:27:14.015Z,24.38
2022-10-28T01:32:26.135Z,23.92
2022-10-28T01:37:34.571Z,21.70
2022-10-28T01:42:42.464Z,24.05
2022-10-28T01:47:52.290Z,20.13
2022-10-28T01:52:59.029Z,21.13
2022-10-28T01:58:03.588Z,20.42
2022-10-28T02:03:10.234Z,27.48
2022-10-28T02:08:24.545Z,23.25
2022-10-28T02:13:36.059Z,26.17
2022-10-28T02:18:44.587Z,20.08
2022-10-28T02:23:53.254Z,20.02
2022-10-28T02:29:01.792Z,20.48
2022-10-28T02:34:09.439Z,17.95
2022-10-28T02:39:13.363Z,17.30
2022-10-28T02:44:20.017Z,15.63
2022-10-28T02:49:26.675Z,20.10
2022-10-28T02:54:34.202Z,19.27
2022-10-28T02:59:37.994Z,14.70
2022-10-28T03:04:43.150Z,14.52
2022-10-28T03:09:46.944Z,15.27
2022-10-28T03:14:50.724Z,16.80
2022-10-28T03:19:55.911Z,18.85
2022-10-28T03:24:59.743Z,19.15
2022-10-28T03:30:03.533Z,16.90
2022-10-28T03:35:09.655Z,18.77
2022-10-28T03:40:13.978Z,15.98
2022-10-28T03:45:17.953Z,21.35
2022-10-28T03:50:23.808Z,18.15
2022-10-28T03:55:27.719Z,15.70
2022-10-28T04:00:31.686Z,19.42
2022-10-28T04:05:36.934Z,19.63
2022-10-28T04:10:44.913Z,15.18
2022-10-28T04:15:50.843Z,19.35
2022-10-28T04:20:56.047Z,16.92
2022-10-28T04:25:59.855Z,13.93
2022-10-28T04:31:03.699Z,18.13
2022-10-28T04:36:09.422Z,22.35
2022-10-28T04:41:14.204Z,19.70
2022-10-28T04:46:17.991Z,19.52
2022-10-28T04:51:23.239Z,21.95
2022-10-28T04:56:27.004Z,17.30
2022-10-28T05:01:30.857Z,18.73
2022-10-28T05:06:36.100Z,19.23
2022-10-28T05:11:39.921Z,15.90
2022-10-28T05:16:43.704Z,25.80
2022-10-28T05:21:48.891Z,34.25
2022-10-28T05:26:52.886Z,28.08
2022-10-28T05:31:59.283Z,30.08
2022-10-28T05:37:04.462Z,16.25
2022-10-28T05:42:08.427Z,22.90
2022-10-28T05:47:12.272Z,23.55
2022-10-28T05:52:17.559Z,20.65
2022-10-28T05:57:21.328Z,22.58
2022-10-28T06:02:25.123Z,19.17
2022-10-28T06:07:31.580Z,26.25
2022-10-28T06:17:42.764Z,22.92
2022-10-28T06:22:52.034Z,22.75
2022-10-28T06:27:57.222Z,26.52
2022-10-28T06:33:01.016Z,20.10
2022-10-28T06:38:09.203Z,27.90
2022-10-28T06:43:14.148Z,23.52
2022-10-28T06:48:19.461Z,25.38
2022-10-28T06:53:24.673Z,21.73
2022-10-28T06:58:28.503Z,20.30
2022-10-28T07:03:33.033Z,21.77
2022-10-28T07:08:38.214Z,26.95
2022-10-28T07:13:44.273Z,21.42
2022-10-28T07:18:50.459Z,26.77
2022-10-28T07:23:56.795Z,19.90
2022-10-28T07:29:00.593Z,30.48
2022-10-28T07:34:04.386Z,33.60
2022-10-28T07:39:11.198Z,23.42
2022-10-28T07:44:15.073Z,21.38
2022-10-28T07:49:18.883Z,23.15
2022-10-28T07:54:24.058Z,21.88
2022-10-28T07:59:27.905Z,19.07
2022-10-28T08:04:32.389Z,25.70
2022-10-28T08:09:37.573Z,27.58
2022-10-28T08:14:41.372Z,26.17
2022-10-28T08:19:45.171Z,23.40
2022-10-28T08:24:50.333Z,26.27
2022-10-28T08:29:54.560Z,23.90
2022-10-28T08:34:58.382Z,21.17
2022-10-28T08:40:03.585Z,27.90
2022-10-28T08:45:18.274Z,18.57
2022-10-28T08:50:23.685Z,18.92
2022-10-28T08:55:32.073Z,14.80
2022-10-28T09:00:36.435Z,25.08
2022-10-28T09:05:41.085Z,19.35
2022-10-28T09:11:05.153Z,20.55
2022-10-28T09:16:15.284Z,16.83
2022-10-28T09:21:24.497Z,14.65
2022-10-28T09:26:38.390Z,19.17
2022-10-28T09:31:46.770Z,20.98
2022-10-28T09:36:54.439Z,17.23
2022-10-28T09:42:01.933Z,19.25
2022-10-28T09:47:15.703Z,19.92
2022-10-28T09:52:22.889Z,19.02
2022-10-28T09:57:31.669Z,17.45
2022-10-28T10:02:36.157Z,19.08
2022-10-28T10:07:42.970Z,28.13
2022-10-28T10:12:51.475Z,14.98
2022-10-28T10:17:58.708Z,15.27
2022-10-28T10:23:02.471Z,15.70
2022-10-28T10:28:16.463Z,17.75
2022-10-28T10:33:22.365Z,14.38
2022-10-28T10:38:27.295Z,18.95
2022-10-28T10:48:37.145Z,17.42
2022-10-28T10:53:41.429Z,11.37
2022-10-28T10:58:52.728Z,19.23
2022-10-28T11:04:00.185Z,14.10
2022-10-28T11:09:06.019Z,18.77
2022-10-28T11:14:21.825Z,15.52
2022-10-28T11:19:29.795Z,16.95
2022-10-28T11:24:43.735Z,16.15
2022-10-28T11:29:49.444Z,14.07
2022-10-28T11:35:08.271Z,12.80
2022-10-28T11:40:20.959Z,15.68
2022-10-28T11:45:30.723Z,18.23
2022-10-28T11:50:45.398Z,21.05
2022-10-28T11:55:53.128Z,19.52
2022-10-28T12:01:09.546Z,14.55
2022-10-28T12:06:18.081Z,15.52
2022-10-28T12:11:29.482Z,15.75
2022-10-28T12:16:41.168Z,12.18
2022-10-28T12:21:49.422Z,15.60
2022-10-28T12:26:54.978Z,14.50
2022-10-28T12:32:02.514Z,15.93
2022-10-28T12:37:09.559Z,13.75
2022-10-28T12:42:17.981Z,19.00
2022-10-28T12:47:28.257Z,16.55
2022-10-28T12:52:41.877Z,12.57
2022-10-28T12:57:48.630Z,13.70
2022-10-28T13:02:59.795Z,13.18
2022-10-28T13:08:34.709Z,19.63
2022-10-28T13:13:45.596Z,11.43
2022-10-28T13:19:27.404Z,16.85
2022-10-28T13:24:34.888Z,11.90
2022-10-28T13:29:39.577Z,14.23
2022-10-28T13:34:44.814Z,9.75
2022-10-28T13:39:48.792Z,14.23
2022-10-28T13:44:53.753Z,15.63
2022-10-28T13:50:37.698Z,14.93
2022-10-28T13:55:47.180Z,13.50
2022-10-28T14:00:53.350Z,18.90
2022-10-28T14:05:59.959Z,11.15
2022-10-28T14:11:05.755Z,16.95
2022-10-28T14:16:18.626Z,18.48
2022-10-28T14:21:24.199Z,11.60
2022-10-28T14:26:28.024Z,13.50
2022-10-28T14:31:43.257Z,14.07
2022-10-28T14:36:55.459Z,11.73
2022-10-28T14:42:12.079Z,14.73
2022-10-28T14:47:32.098Z,19.05
2022-10-28T14:52:38.473Z,20.23
2022-10-28T14:57:42.529Z,18.08
2022-10-28T15:02:46.690Z,12.70
2022-10-28T15:07:52.540Z,20.45
2022-10-28T15:12:57.618Z,23.05
2022-10-28T15:18:02.041Z,19.83
2022-10-28T15:23:19.215Z,30.55
2022-10-28T15:28:23.113Z,21.88
2022-10-28T15:33:31.729Z,26.02
2022-10-28T15:38:39.566Z,23.83
2022-10-28T15:43:49.498Z,21.88
2022-10-28T15:48:53.572Z,26.45
2022-10-28T15:54:11.306Z,22.63
2022-10-28T15:59:18.965Z,23.13
2022-10-28T16:04:43.624Z,27.63
2022-10-28T16:09:50.291Z,22.15
2022-10-28T16:14:56.605Z,27.25
2022-10-28T16:20:02.917Z,28.02
2022-10-28T16:25:14.030Z,29.98
2022-10-28T16:30:18.093Z,45.42
2022-10-28T16:35:23.425Z,34.90
2022-10-28T16:40:50.382Z,40.07
2022-10-28T16:45:53.369Z,42.88
2022-10-28T16:50:59.414Z,57.78
2022-10-28T17:01:09.725Z,39.28
2022-10-28T17:06:13.585Z,33.35
2022-10-28T17:11:18.844Z,38.15
2022-10-28T17:16:22.620Z,43.73
2022-10-28T17:21:26.569Z,40.95
2022-10-28T17:26:31.721Z,39.38
2022-10-28T17:31:35.491Z,50.73
2022-10-28T17:36:39.278Z,52.97
2022-10-28T17:41:44.456Z,51.13
2022-10-28T17:46:49.628Z,40.63
2022-10-28T17:51:53.469Z,43.00
2022-10-28T17:56:58.684Z,48.28
2022-10-28T18:02:02.521Z,46.43
2022-10-28T18:07:06.450Z,47.97
2022-10-28T18:12:12.718Z,44.22
2022-10-28T18:17:17.381Z,31.77
2022-10-28T18:22:21.165Z,41.45
2022-10-28T18:27:26.534Z,34.00
2022-10-28T18:32:30.307Z,31.43
2022-10-28T18:37:34.097Z,36.58
2022-10-28T18:42:39.286Z,45.47
2022-10-28T18:47:44.582Z,55.00
2022-10-28T18:52:48.347Z,46.20
2022-10-28T18:57:53.599Z,50.83
2022-10-28T19:02:57.403Z,45.57
2022-10-28T19:08:01.416Z,46.15
2022-10-28T19:13:06.651Z,53.00
2022-10-28T19:18:11.460Z,47.80
2022-10-28T19:23:16.947Z,53.50
2022-10-28T19:28:22.158Z,39.80
2022-10-28T19:33:25.918Z,50.10
2022-10-28T19:38:32.508Z,44.33
2022-10-28T19:43:37.847Z,48.67
2022-10-28T19:48:42.761Z,43.47
2022-10-28T19:53:48.954Z,46.25
2022-10-28T19:58:55.528Z,45.55
2022-10-28T20:03:59.577Z,48.25
2022-10-28T20:09:03.878Z,58.83
2022-10-28T20:14:11.784Z,50.72
2022-10-28T20:19:15.857Z,54.30
2022-10-28T20:24:20.450Z,58.05
2022-10-28T20:29:25.687Z,58.65
2022-10-28T20:34:29.479Z,47.93
2022-10-28T20:39:33.248Z,43.60
2022-10-28T20:44:38.432Z,42.15
2022-10-28T20:49:42.787Z,41.30
2022-10-28T20:54:46.579Z,39.17
2022-10-28T20:59:51.770Z,49.88
2022-10-28T21:04:55.527Z,35.73
2022-10-28T21:09:59.549Z,49.88
2022-10-28T21:15:05.447Z,58.13
2022-10-28T21:20:10.541Z,52.95
2022-10-28T21:25:14.326Z,53.58
2022-10-28T21:30:19.554Z,44.33
2022-10-28T21:35:23.790Z,40.30
2022-10-28T21:40:27.565Z,39.47
2022-10-28T21:45:32.737Z,31.17
2022-10-28T21:50:36.521Z,27.73
2022-10-28T21:55:46.586Z,41.00
2022-10-28T22:00:52.843Z,34.83
2022-10-28T22:05:56.681Z,35.20
2022-10-28T22:11:02.072Z,32.60
2022-10-28T22:16:08.580Z,37.47
2022-10-28T22:21:13.996Z,37.42
2022-10-28T22:26:19.845Z,41.27
2022-10-28T22:31:26.305Z,40.50
2022-10-28T22:36:31.041Z,39.28
2022-10-28T22:41:34.971Z,43.30
2022-10-28T22:46:41.216Z,43.83
2022-10-28T22:51:45.001Z,42.83
2022-10-28T22:56:49.071Z,49.67
2022-10-28T23:01:54.348Z,53.40
2022-10-28T23:06:58.161Z,46.80
2022-10-28T23:12:01.917Z,47.17
2022-10-28T23:17:07.925Z,44.55
2022-10-28T23:22:11.687Z,55.40
2022-10-28T23:27:15.456Z,57.05
2022-10-28T23:32:20.594Z,60.28
2022-10-28T23:37:24.370Z,57.95
2022-10-28T23:42:28.136Z,53.85
2022-10-28T23:47:33.294Z,53.13
2022-10-28T23:52:37.083Z,53.65
2022-10-28T23:57:40.859Z,45.28
